»·PEaware :: N169CA KMCC-KMRY

N169CA :: KMCC-KMRY

FLIGHT INFORMATION

Flight Status: Arrived
Operator: Privately registered:
United States
More flights under this callsign
Pilot: Mike H. (17104)
Aircraft: DORNIER 228
(D228)
More flights by this aircraft type
Origin: KMCC McClellan
United States
Destination: KMRY Monterey Peninsula
United States
More flights between these airports :: More routes between these airports
Route: MOD V111 SNS
File this flight plan on PilotEdge
Remarks: Testing DO228
Altitude:
(Current/Filed)
8,000ft
Speed:
(Current/Filed)
225kts
Departed: 23-Nov-17 07:57 AM
Arrived: 23-Nov-17 08:47 AM
Distance/Time
Traveled:
127nm/0:50
Distance/Time
To Go:
Arrived

Flight Plot

Page will automatically refresh every two minutes.

Flight plan parsing failed; only flown route is shown


Map Options




Map Legend


Flown Route
Filed Route
Departure Airport
Arrival Airport
Navaid (VOR, NDB)
Fix

Horizontal Profiles

Position Reports

Time Latitude Longitude Heading Altitude Ground
Speed
23-Nov-17 07:50 38.667175 -121.394675 306 81ft 0kts
23-Nov-17 07:51 38.667175 -121.394675 306 81ft 0kts
23-Nov-17 07:52 38.667175 -121.394675 306 81ft 0kts
23-Nov-17 07:53 38.667175 -121.394675 306 81ft 0kts
23-Nov-17 07:54 38.667175 -121.394675 306 81ft 0kts
23-Nov-17 07:55 38.667175 -121.394675 306 81ft 0kts
23-Nov-17 07:56 38.667175 -121.394675 306 81ft 0kts
23-Nov-17 07:57 38.667503 -121.395793 276 81ft 19kts
23-Nov-17 07:58 38.671339 -121.397762 1 81ft 32kts
23-Nov-17 07:59 38.679167 -121.397846 359 81ft 21kts
23-Nov-17 08:00 38.681771 -121.400694 180 81ft 12kts
23-Nov-17 08:01 38.681187 -121.400586 178 81ft 0kts
23-Nov-17 08:02 38.674056 -121.400602 180 81ft 105kts
23-Nov-17 08:03 38.638525 -121.402363 170 1483ft 143kts
23-Nov-17 08:04 38.599306 -121.389968 152 2945ft 159kts
23-Nov-17 08:05 38.557624 -121.371461 162 4427ft 163kts
23-Nov-17 08:06 38.515225 -121.352703 162 5900ft 164kts
23-Nov-17 08:07 38.473146 -121.333783 164 7366ft 165kts
23-Nov-17 08:08 38.426863 -121.313066 164 8007ft 200kts
23-Nov-17 08:09 38.372157 -121.288340 164 8000ft 214kts
23-Nov-17 08:10 38.315661 -121.262966 164 7999ft 216kts
23-Nov-17 08:11 38.259138 -121.237672 164 7999ft 216kts
23-Nov-17 08:12 38.202545 -121.212393 164 8007ft 216kts
23-Nov-17 08:13 38.145603 -121.187012 164 8006ft 220kts
23-Nov-17 08:14 38.088457 -121.161545 164 8005ft 220kts
23-Nov-17 08:15 38.031136 -121.136053 164 8006ft 219kts
23-Nov-17 08:16 37.973727 -121.110585 164 8004ft 219kts
23-Nov-17 08:17 37.916069 -121.085052 163 8000ft 221kts
23-Nov-17 08:18 37.859796 -121.060163 163 7997ft 221kts
23-Nov-17 08:19 37.802329 -121.034784 163 7995ft 221kts
23-Nov-17 08:20 37.744217 -121.009169 163 7992ft 221kts
23-Nov-17 08:21 37.686149 -120.983619 163 7991ft 221kts
23-Nov-17 08:22 37.627575 -120.963292 188 7989ft 215kts
23-Nov-17 08:23 37.574580 -120.993625 211 8009ft 210kts
23-Nov-17 08:24 37.523171 -121.028654 211 8009ft 210kts
23-Nov-17 08:25 37.471575 -121.063604 211 8009ft 210kts
23-Nov-17 08:26 37.419993 -121.098465 211 8008ft 211kts
23-Nov-17 08:27 37.368243 -121.133389 211 7972ft 211kts
23-Nov-17 08:28 37.316496 -121.168234 211 7972ft 211kts
23-Nov-17 08:29 37.264843 -121.202980 211 7973ft 210kts
23-Nov-17 08:30 37.213697 -121.237325 211 8019ft 206kts
23-Nov-17 08:31 37.163410 -121.271049 210 8029ft 204kts
23-Nov-17 08:32 37.113771 -121.304280 210 8034ft 202kts
23-Nov-17 08:33 37.064479 -121.337240 210 8034ft 201kts
23-Nov-17 08:34 37.014901 -121.370350 210 8034ft 201kts
23-Nov-17 08:35 36.964048 -121.404239 210 7098ft 211kts
23-Nov-17 08:36 36.915613 -121.436416 210 6157ft 212kts
23-Nov-17 08:37 36.864745 -121.470216 210 5173ft 213kts
23-Nov-17 08:38 36.812438 -121.504927 210 4300ft 209kts
23-Nov-17 08:39 36.762590 -121.537832 210 4090ft 208kts
23-Nov-17 08:40 36.709968 -121.573777 210 3204ft 222kts
23-Nov-17 08:41 36.656371 -121.612403 213 2211ft 224kts
23-Nov-17 08:42 36.638845 -121.680161 280 1485ft 186kts
23-Nov-17 08:43 36.646931 -121.735545 281 1981ft 149kts
23-Nov-17 08:44 36.656558 -121.787707 284 1971ft 147kts
23-Nov-17 08:45 36.666704 -121.834150 284 1972ft 135kts
23-Nov-17 08:46 36.674363 -121.889501 272 1978ft 175kts
23-Nov-17 08:47 36.669673 -121.948260 230 1963ft 170kts
23-Nov-17 08:48 36.637690 -121.970797 150 1972ft 135kts
23-Nov-17 08:49 36.616019 -121.930006 116 1549ft 151kts
23-Nov-17 08:50 36.601551 -121.887345 116 809ft 110kts
23-Nov-17 08:51 36.591631 -121.857816 117 336ft 83kts
23-Nov-17 08:52 36.586404 -121.842672 114 260ft 10kts
23-Nov-17 08:53 36.585521 -121.842898 291 260ft 17kts
23-Nov-17 08:54 36.587072 -121.847009 290 260ft 18kts
23-Nov-17 08:55 36.587931 -121.850166 252 260ft 6kts
23-Nov-17 08:56 36.587638 -121.850602 230 260ft 0kts
23-Nov-17 08:57 36.587638 -121.850602 230 260ft 0kts

Navigation Log

Ident Type
Flight plan parsing failed, navigation log unavailable